<?xml version="1.0" encoding="UTF-8" standalone="no" ?>
<gpx xmlns="http://www.topografix.com/GPX/1/1" xmlns:xsi="http://www.w3.org/2001/XMLSchema-instance" xsi:schemaLocation="http://www.topografix.com/GPX/1/1 http://www.topografix.com/GPX/1/1/gpx.xsd" version="1.1" creator="VisuGPX - https://www.visugpx.com">
  <metadata>
    <name>Pareloup</name>
  </metadata>
  <trk>
    <name><![CDATA[Le Viaur]]></name>
    <extensions>
      <line xmlns="http://www.topografix.com/GPX/gpx_style/0/2">
        <color>FFFF00</color>
        <width>4</width>
      </line>
    </extensions>
    <trkseg>
      <trkpt lat="44.23772" lon="2.59924">
        <ele>777.84</ele>
        <time>2022-07-12T14:57:41Z</time>
      </trkpt>
      <trkpt lat="44.23773" lon="2.59908">
        <ele>776.88</ele>
        <time>2022-07-12T14:57:50Z</time>
      </trkpt>
      <trkpt lat="44.23775" lon="2.59892">
        <ele>776.88</ele>
        <time>2022-07-12T14:57:59Z</time>
      </trkpt>
      <trkpt lat="44.23775" lon="2.59874">
        <ele>775.92</ele>
        <time>2022-07-12T14:58:09Z</time>
      </trkpt>
      <trkpt lat="44.23776" lon="2.5986">
        <ele>775.44</ele>
        <time>2022-07-12T14:58:17Z</time>
      </trkpt>
      <trkpt lat="44.23779" lon="2.59846">
        <ele>775.44</ele>
        <time>2022-07-12T14:58:26Z</time>
      </trkpt>
      <trkpt lat="44.23779" lon="2.59831">
        <ele>775.44</ele>
        <time>2022-07-12T14:58:35Z</time>
      </trkpt>
      <trkpt lat="44.23781" lon="2.59813">
        <ele>775.92</ele>
        <time>2022-07-12T14:58:44Z</time>
      </trkpt>
      <trkpt lat="44.23783" lon="2.59798">
        <ele>775.44</ele>
        <time>2022-07-12T14:58:53Z</time>
      </trkpt>
      <trkpt lat="44.23787" lon="2.59783">
        <ele>775.44</ele>
        <time>2022-07-12T14:59:02Z</time>
      </trkpt>
      <trkpt lat="44.23792" lon="2.59773">
        <ele>775.44</ele>
        <time>2022-07-12T14:59:10Z</time>
      </trkpt>
      <trkpt lat="44.23795" lon="2.5976">
        <ele>776.4</ele>
        <time>2022-07-12T14:59:19Z</time>
      </trkpt>
      <trkpt lat="44.23797" lon="2.59746">
        <ele>776.88</ele>
        <time>2022-07-12T14:59:28Z</time>
      </trkpt>
      <trkpt lat="44.23799" lon="2.5973">
        <ele>777.36</ele>
        <time>2022-07-12T14:59:37Z</time>
      </trkpt>
      <trkpt lat="44.23802" lon="2.59714">
        <ele>777.84</ele>
        <time>2022-07-12T14:59:46Z</time>
      </trkpt>
      <trkpt lat="44.23805" lon="2.597">
        <ele>777.84</ele>
        <time>2022-07-12T14:59:55Z</time>
      </trkpt>
      <trkpt lat="44.23809" lon="2.59687">
        <ele>776.88</ele>
        <time>2022-07-12T15:00:04Z</time>
      </trkpt>
      <trkpt lat="44.23814" lon="2.59675">
        <ele>776.88</ele>
        <time>2022-07-12T15:00:13Z</time>
      </trkpt>
      <trkpt lat="44.23818" lon="2.5966">
        <ele>776.4</ele>
        <time>2022-07-12T15:00:22Z</time>
      </trkpt>
      <trkpt lat="44.23823" lon="2.59647">
        <ele>775.44</ele>
        <time>2022-07-12T15:00:31Z</time>
      </trkpt>
      <trkpt lat="44.23829" lon="2.59633">
        <ele>774</ele>
        <time>2022-07-12T15:00:40Z</time>
      </trkpt>
      <trkpt lat="44.23834" lon="2.59619">
        <ele>773.04</ele>
        <time>2022-07-12T15:00:49Z</time>
      </trkpt>
      <trkpt lat="44.23841" lon="2.59608">
        <ele>773.04</ele>
        <time>2022-07-12T15:00:57Z</time>
      </trkpt>
      <trkpt lat="44.23845" lon="2.59595">
        <ele>772.08</ele>
        <time>2022-07-12T15:01:06Z</time>
      </trkpt>
      <trkpt lat="44.2385" lon="2.59583">
        <ele>771.11</ele>
        <time>2022-07-12T15:01:15Z</time>
      </trkpt>
      <trkpt lat="44.23855" lon="2.5957">
        <ele>771.11</ele>
        <time>2022-07-12T15:01:23Z</time>
      </trkpt>
      <trkpt lat="44.23861" lon="2.59558">
        <ele>770.63</ele>
        <time>2022-07-12T15:01:31Z</time>
      </trkpt>
      <trkpt lat="44.23869" lon="2.59547">
        <ele>769.67</ele>
        <time>2022-07-12T15:01:40Z</time>
      </trkpt>
      <trkpt lat="44.23875" lon="2.59535">
        <ele>768.71</ele>
        <time>2022-07-12T15:01:48Z</time>
      </trkpt>
      <trkpt lat="44.23879" lon="2.59522">
        <ele>767.75</ele>
        <time>2022-07-12T15:01:57Z</time>
      </trkpt>
      <trkpt lat="44.23886" lon="2.59507">
        <ele>767.27</ele>
        <time>2022-07-12T15:02:08Z</time>
      </trkpt>
      <trkpt lat="44.2389" lon="2.59492">
        <ele>767.27</ele>
        <time>2022-07-12T15:02:18Z</time>
      </trkpt>
      <trkpt lat="44.23914" lon="2.59441">
        <ele>770.63</ele>
        <time>2022-07-12T15:04:09Z</time>
      </trkpt>
      <trkpt lat="44.23921" lon="2.59427">
        <ele>769.67</ele>
        <time>2022-07-12T15:04:17Z</time>
      </trkpt>
      <trkpt lat="44.23933" lon="2.59402">
        <ele>769.67</ele>
        <time>2022-07-12T15:04:34Z</time>
      </trkpt>
      <trkpt lat="44.2395" lon="2.59366">
        <ele>765.35</ele>
        <time>2022-07-12T15:04:56Z</time>
      </trkpt>
      <trkpt lat="44.23961" lon="2.59351">
        <ele>764.87</ele>
        <time>2022-07-12T15:05:04Z</time>
      </trkpt>
      <trkpt lat="44.2397" lon="2.59338">
        <ele>764.39</ele>
        <time>2022-07-12T15:05:11Z</time>
      </trkpt>
      <trkpt lat="44.23981" lon="2.59325">
        <ele>763.9</ele>
        <time>2022-07-12T15:05:20Z</time>
      </trkpt>
      <trkpt lat="44.23991" lon="2.59311">
        <ele>762.46</ele>
        <time>2022-07-12T15:05:28Z</time>
      </trkpt>
      <trkpt lat="44.23998" lon="2.59299">
        <ele>761.02</ele>
        <time>2022-07-12T15:05:36Z</time>
      </trkpt>
      <trkpt lat="44.24005" lon="2.59284">
        <ele>759.58</ele>
        <time>2022-07-12T15:05:45Z</time>
      </trkpt>
      <trkpt lat="44.24013" lon="2.59267">
        <ele>757.66</ele>
        <time>2022-07-12T15:05:54Z</time>
      </trkpt>
      <trkpt lat="44.24021" lon="2.59251">
        <ele>756.21</ele>
        <time>2022-07-12T15:06:03Z</time>
      </trkpt>
      <trkpt lat="44.24028" lon="2.5923">
        <ele>753.81</ele>
        <time>2022-07-12T15:06:16Z</time>
      </trkpt>
      <trkpt lat="44.24068" lon="2.59143">
        <ele>745.64</ele>
        <time>2022-07-12T15:07:07Z</time>
      </trkpt>
      <trkpt lat="44.24088" lon="2.59119">
        <ele>746.12</ele>
        <time>2022-07-12T15:07:27Z</time>
      </trkpt>
      <trkpt lat="44.24111" lon="2.59072">
        <ele>744.2</ele>
        <time>2022-07-12T15:07:56Z</time>
      </trkpt>
      <trkpt lat="44.24117" lon="2.5905">
        <ele>744.68</ele>
        <time>2022-07-12T15:08:06Z</time>
      </trkpt>
      <trkpt lat="44.24121" lon="2.59035">
        <ele>742.28</ele>
        <time>2022-07-12T15:08:16Z</time>
      </trkpt>
      <trkpt lat="44.24133" lon="2.59011">
        <ele>738.43</ele>
        <time>2022-07-12T15:08:31Z</time>
      </trkpt>
      <trkpt lat="44.2414" lon="2.58993">
        <ele>738.43</ele>
        <time>2022-07-12T15:08:40Z</time>
      </trkpt>
      <trkpt lat="44.24146" lon="2.58978">
        <ele>738.91</ele>
        <time>2022-07-12T15:08:47Z</time>
      </trkpt>
      <trkpt lat="44.24154" lon="2.58963">
        <ele>739.87</ele>
        <time>2022-07-12T15:08:55Z</time>
      </trkpt>
      <trkpt lat="44.24158" lon="2.58949">
        <ele>741.31</ele>
        <time>2022-07-12T15:09:02Z</time>
      </trkpt>
      <trkpt lat="44.24166" lon="2.58936">
        <ele>741.79</ele>
        <time>2022-07-12T15:09:11Z</time>
      </trkpt>
      <trkpt lat="44.24173" lon="2.58924">
        <ele>742.28</ele>
        <time>2022-07-12T15:09:18Z</time>
      </trkpt>
      <trkpt lat="44.24179" lon="2.5891">
        <ele>742.76</ele>
        <time>2022-07-12T15:09:27Z</time>
      </trkpt>
      <trkpt lat="44.24186" lon="2.58895">
        <ele>741.79</ele>
        <time>2022-07-12T15:09:35Z</time>
      </trkpt>
      <trkpt lat="44.24194" lon="2.5888">
        <ele>741.79</ele>
        <time>2022-07-12T15:09:43Z</time>
      </trkpt>
      <trkpt lat="44.24201" lon="2.58867">
        <ele>741.31</ele>
        <time>2022-07-12T15:09:51Z</time>
      </trkpt>
      <trkpt lat="44.24206" lon="2.58853">
        <ele>739.87</ele>
        <time>2022-07-12T15:09:58Z</time>
      </trkpt>
      <trkpt lat="44.24211" lon="2.5884">
        <ele>738.43</ele>
        <time>2022-07-12T15:10:06Z</time>
      </trkpt>
      <trkpt lat="44.24218" lon="2.58825">
        <ele>738.43</ele>
        <time>2022-07-12T15:10:14Z</time>
      </trkpt>
      <trkpt lat="44.24221" lon="2.58814">
        <ele>738.43</ele>
        <time>2022-07-12T15:10:22Z</time>
      </trkpt>
      <trkpt lat="44.24226" lon="2.58798">
        <ele>736.99</ele>
        <time>2022-07-12T15:10:31Z</time>
      </trkpt>
      <trkpt lat="44.24232" lon="2.5878">
        <ele>735.07</ele>
        <time>2022-07-12T15:10:41Z</time>
      </trkpt>
      <trkpt lat="44.2424" lon="2.58759">
        <ele>734.1</ele>
        <time>2022-07-12T15:10:50Z</time>
      </trkpt>
      <trkpt lat="44.24242" lon="2.58738">
        <ele>732.66</ele>
        <time>2022-07-12T15:11:02Z</time>
      </trkpt>
      <trkpt lat="44.24244" lon="2.58717">
        <ele>731.7</ele>
        <time>2022-07-12T15:11:10Z</time>
      </trkpt>
      <trkpt lat="44.24247" lon="2.58702">
        <ele>731.22</ele>
        <time>2022-07-12T15:11:17Z</time>
      </trkpt>
      <trkpt lat="44.24249" lon="2.58684">
        <ele>730.26</ele>
        <time>2022-07-12T15:11:25Z</time>
      </trkpt>
      <trkpt lat="44.24252" lon="2.58665">
        <ele>730.74</ele>
        <time>2022-07-12T15:11:30Z</time>
      </trkpt>
      <trkpt lat="44.24254" lon="2.58648">
        <ele>731.22</ele>
        <time>2022-07-12T15:11:34Z</time>
      </trkpt>
      <trkpt lat="44.24257" lon="2.58632">
        <ele>731.7</ele>
        <time>2022-07-12T15:11:38Z</time>
      </trkpt>
      <trkpt lat="44.24258" lon="2.58616">
        <ele>732.66</ele>
        <time>2022-07-12T15:11:42Z</time>
      </trkpt>
      <trkpt lat="44.2426" lon="2.58597">
        <ele>732.66</ele>
        <time>2022-07-12T15:11:46Z</time>
      </trkpt>
      <trkpt lat="44.24261" lon="2.58583">
        <ele>732.18</ele>
        <time>2022-07-12T15:11:49Z</time>
      </trkpt>
      <trkpt lat="44.24264" lon="2.58569">
        <ele>732.18</ele>
        <time>2022-07-12T15:11:52Z</time>
      </trkpt>
      <trkpt lat="44.24267" lon="2.58554">
        <ele>732.18</ele>
        <time>2022-07-12T15:11:55Z</time>
      </trkpt>
      <trkpt lat="44.24269" lon="2.58541">
        <ele>732.18</ele>
        <time>2022-07-12T15:11:58Z</time>
      </trkpt>
      <trkpt lat="44.24272" lon="2.58525">
        <ele>732.18</ele>
        <time>2022-07-12T15:12:01Z</time>
      </trkpt>
      <trkpt lat="44.24276" lon="2.58508">
        <ele>732.18</ele>
        <time>2022-07-12T15:12:04Z</time>
      </trkpt>
      <trkpt lat="44.24281" lon="2.5849">
        <ele>733.14</ele>
        <time>2022-07-12T15:12:07Z</time>
      </trkpt>
      <trkpt lat="44.24285" lon="2.58474">
        <ele>733.62</ele>
        <time>2022-07-12T15:12:10Z</time>
      </trkpt>
      <trkpt lat="44.24289" lon="2.58458">
        <ele>734.1</ele>
        <time>2022-07-12T15:12:13Z</time>
      </trkpt>
      <trkpt lat="44.24291" lon="2.58443">
        <ele>734.58</ele>
        <time>2022-07-12T15:12:16Z</time>
      </trkpt>
      <trkpt lat="44.24293" lon="2.58424">
        <ele>735.07</ele>
        <time>2022-07-12T15:12:19Z</time>
      </trkpt>
      <trkpt lat="44.24295" lon="2.58406">
        <ele>735.55</ele>
        <time>2022-07-12T15:12:22Z</time>
      </trkpt>
      <trkpt lat="44.24296" lon="2.58391">
        <ele>736.03</ele>
        <time>2022-07-12T15:12:26Z</time>
      </trkpt>
      <trkpt lat="44.24314" lon="2.58395">
        <ele>739.87</ele>
        <time>2022-07-12T15:12:42Z</time>
      </trkpt>
      <trkpt lat="44.24326" lon="2.58396">
        <ele>741.31</ele>
        <time>2022-07-12T15:12:50Z</time>
      </trkpt>
      <trkpt lat="44.24336" lon="2.58397">
        <ele>745.64</ele>
        <time>2022-07-12T15:12:57Z</time>
      </trkpt>
      <trkpt lat="44.24345" lon="2.58398">
        <ele>745.64</ele>
        <time>2022-07-12T15:13:04Z</time>
      </trkpt>
      <trkpt lat="44.24355" lon="2.58392">
        <ele>747.08</ele>
        <time>2022-07-12T15:13:13Z</time>
      </trkpt>
      <trkpt lat="44.24366" lon="2.58375">
        <ele>749.49</ele>
        <time>2022-07-12T15:13:27Z</time>
      </trkpt>
      <trkpt lat="44.24375" lon="2.58367">
        <ele>749.97</ele>
        <time>2022-07-12T15:13:37Z</time>
      </trkpt>
      <trkpt lat="44.24421" lon="2.58376">
        <ele>753.81</ele>
        <time>2022-07-12T15:14:17Z</time>
      </trkpt>
      <trkpt lat="44.24434" lon="2.58381">
        <ele>754.29</ele>
        <time>2022-07-12T15:14:27Z</time>
      </trkpt>
      <trkpt lat="44.2445" lon="2.58387">
        <ele>755.73</ele>
        <time>2022-07-12T15:14:38Z</time>
      </trkpt>
      <trkpt lat="44.24482" lon="2.584">
        <ele>756.69</ele>
        <time>2022-07-12T15:15:03Z</time>
      </trkpt>
      <trkpt lat="44.24498" lon="2.58406">
        <ele>758.62</ele>
        <time>2022-07-12T15:15:16Z</time>
      </trkpt>
      <trkpt lat="44.24512" lon="2.58411">
        <ele>759.1</ele>
        <time>2022-07-12T15:15:26Z</time>
      </trkpt>
      <trkpt lat="44.24531" lon="2.58422">
        <ele>757.66</ele>
        <time>2022-07-12T15:15:40Z</time>
      </trkpt>
      <trkpt lat="44.24564" lon="2.58435">
        <ele>755.73</ele>
        <time>2022-07-12T15:16:04Z</time>
      </trkpt>
      <trkpt lat="44.24578" lon="2.58436">
        <ele>755.25</ele>
        <time>2022-07-12T15:16:12Z</time>
      </trkpt>
      <trkpt lat="44.24589" lon="2.58444">
        <ele>752.85</ele>
        <time>2022-07-12T15:16:21Z</time>
      </trkpt>
      <trkpt lat="44.24597" lon="2.58456">
        <ele>752.37</ele>
        <time>2022-07-12T15:16:28Z</time>
      </trkpt>
      <trkpt lat="44.24603" lon="2.5847">
        <ele>755.73</ele>
        <time>2022-07-12T15:16:35Z</time>
      </trkpt>
      <trkpt lat="44.24605" lon="2.58485">
        <ele>758.14</ele>
        <time>2022-07-12T15:16:42Z</time>
      </trkpt>
      <trkpt lat="44.24605" lon="2.58499">
        <ele>759.58</ele>
        <time>2022-07-12T15:16:49Z</time>
      </trkpt>
      <trkpt lat="44.24609" lon="2.58512">
        <ele>760.54</ele>
        <time>2022-07-12T15:16:57Z</time>
      </trkpt>
      <trkpt lat="44.24614" lon="2.5853">
        <ele>761.5</ele>
        <time>2022-07-12T15:17:09Z</time>
      </trkpt>
      <trkpt lat="44.24618" lon="2.58548">
        <ele>761.98</ele>
        <time>2022-07-12T15:17:19Z</time>
      </trkpt>
      <trkpt lat="44.24615" lon="2.58563">
        <ele>760.54</ele>
        <time>2022-07-12T15:17:27Z</time>
      </trkpt>
      <trkpt lat="44.24623" lon="2.58573">
        <ele>760.06</ele>
        <time>2022-07-12T15:17:35Z</time>
      </trkpt>
      <trkpt lat="44.24632" lon="2.58581">
        <ele>760.54</ele>
        <time>2022-07-12T15:17:42Z</time>
      </trkpt>
      <trkpt lat="44.24641" lon="2.58583">
        <ele>763.9</ele>
        <time>2022-07-12T15:17:51Z</time>
      </trkpt>
      <trkpt lat="44.24646" lon="2.58572">
        <ele>763.9</ele>
        <time>2022-07-12T15:17:58Z</time>
      </trkpt>
      <trkpt lat="44.24651" lon="2.58562">
        <ele>762.94</ele>
        <time>2022-07-12T15:18:05Z</time>
      </trkpt>
      <trkpt lat="44.2466" lon="2.58561">
        <ele>762.94</ele>
        <time>2022-07-12T15:18:13Z</time>
      </trkpt>
      <trkpt lat="44.24668" lon="2.58566">
        <ele>763.9</ele>
        <time>2022-07-12T15:18:20Z</time>
      </trkpt>
      <trkpt lat="44.24678" lon="2.5857">
        <ele>764.39</ele>
        <time>2022-07-12T15:18:28Z</time>
      </trkpt>
      <trkpt lat="44.24689" lon="2.58577">
        <ele>764.87</ele>
        <time>2022-07-12T15:18:36Z</time>
      </trkpt>
      <trkpt lat="44.247" lon="2.5859">
        <ele>765.83</ele>
        <time>2022-07-12T15:18:56Z</time>
      </trkpt>
      <trkpt lat="44.24706" lon="2.58602">
        <ele>766.79</ele>
        <time>2022-07-12T15:19:03Z</time>
      </trkpt>
      <trkpt lat="44.24714" lon="2.58616">
        <ele>767.27</ele>
        <time>2022-07-12T15:19:11Z</time>
      </trkpt>
      <trkpt lat="44.24721" lon="2.58627">
        <ele>767.75</ele>
        <time>2022-07-12T15:19:19Z</time>
      </trkpt>
      <trkpt lat="44.24727" lon="2.5864">
        <ele>768.71</ele>
        <time>2022-07-12T15:19:27Z</time>
      </trkpt>
      <trkpt lat="44.24734" lon="2.58654">
        <ele>768.23</ele>
        <time>2022-07-12T15:19:35Z</time>
      </trkpt>
      <trkpt lat="44.24739" lon="2.58669">
        <ele>767.75</ele>
        <time>2022-07-12T15:19:44Z</time>
      </trkpt>
      <trkpt lat="44.24742" lon="2.58685">
        <ele>766.79</ele>
        <time>2022-07-12T15:19:53Z</time>
      </trkpt>
      <trkpt lat="44.24743" lon="2.58699">
        <ele>766.31</ele>
        <time>2022-07-12T15:20:01Z</time>
      </trkpt>
      <trkpt lat="44.24744" lon="2.58715">
        <ele>765.35</ele>
        <time>2022-07-12T15:20:09Z</time>
      </trkpt>
      <trkpt lat="44.24746" lon="2.5873">
        <ele>764.87</ele>
        <time>2022-07-12T15:20:16Z</time>
      </trkpt>
      <trkpt lat="44.24747" lon="2.58745">
        <ele>765.35</ele>
        <time>2022-07-12T15:20:24Z</time>
      </trkpt>
      <trkpt lat="44.2475" lon="2.5876">
        <ele>764.87</ele>
        <time>2022-07-12T15:20:32Z</time>
      </trkpt>
      <trkpt lat="44.24757" lon="2.58768">
        <ele>761.98</ele>
        <time>2022-07-12T15:20:42Z</time>
      </trkpt>
      <trkpt lat="44.2477" lon="2.58772">
        <ele>760.54</ele>
        <time>2022-07-12T15:20:51Z</time>
      </trkpt>
      <trkpt lat="44.24778" lon="2.58776">
        <ele>759.58</ele>
        <time>2022-07-12T15:20:58Z</time>
      </trkpt>
      <trkpt lat="44.24787" lon="2.58781">
        <ele>758.62</ele>
        <time>2022-07-12T15:21:05Z</time>
      </trkpt>
      <trkpt lat="44.2479" lon="2.58796">
        <ele>757.18</ele>
        <time>2022-07-12T15:21:12Z</time>
      </trkpt>
      <trkpt lat="44.24787" lon="2.58811">
        <ele>756.21</ele>
        <time>2022-07-12T15:21:19Z</time>
      </trkpt>
      <trkpt lat="44.24782" lon="2.58825">
        <ele>754.77</ele>
        <time>2022-07-12T15:21:27Z</time>
      </trkpt>
      <trkpt lat="44.24779" lon="2.58839">
        <ele>751.89</ele>
        <time>2022-07-12T15:21:35Z</time>
      </trkpt>
      <trkpt lat="44.24776" lon="2.58854">
        <ele>749.97</ele>
        <time>2022-07-12T15:21:43Z</time>
      </trkpt>
      <trkpt lat="44.24773" lon="2.58869">
        <ele>747.56</ele>
        <time>2022-07-12T15:21:52Z</time>
      </trkpt>
      <trkpt lat="44.24773" lon="2.58891">
        <ele>744.2</ele>
        <time>2022-07-12T15:22:05Z</time>
      </trkpt>
      <trkpt lat="44.24774" lon="2.58908">
        <ele>744.2</ele>
        <time>2022-07-12T15:22:13Z</time>
      </trkpt>
      <trkpt lat="44.2478" lon="2.58925">
        <ele>744.68</ele>
        <time>2022-07-12T15:22:22Z</time>
      </trkpt>
      <trkpt lat="44.24786" lon="2.58939">
        <ele>744.2</ele>
        <time>2022-07-12T15:22:29Z</time>
      </trkpt>
      <trkpt lat="44.24793" lon="2.5895">
        <ele>743.24</ele>
        <time>2022-07-12T15:22:37Z</time>
      </trkpt>
      <trkpt lat="44.248" lon="2.58961">
        <ele>742.28</ele>
        <time>2022-07-12T15:22:44Z</time>
      </trkpt>
      <trkpt lat="44.24807" lon="2.5897">
        <ele>741.79</ele>
        <time>2022-07-12T15:22:51Z</time>
      </trkpt>
      <trkpt lat="44.24816" lon="2.58978">
        <ele>741.31</ele>
        <time>2022-07-12T15:22:58Z</time>
      </trkpt>
      <trkpt lat="44.24824" lon="2.58983">
        <ele>740.83</ele>
        <time>2022-07-12T15:23:05Z</time>
      </trkpt>
      <trkpt lat="44.24832" lon="2.58989">
        <ele>738.91</ele>
        <time>2022-07-12T15:23:13Z</time>
      </trkpt>
      <trkpt lat="44.24841" lon="2.58999">
        <ele>738.43</ele>
        <time>2022-07-12T15:23:20Z</time>
      </trkpt>
      <trkpt lat="44.24848" lon="2.5901">
        <ele>737.47</ele>
        <time>2022-07-12T15:23:27Z</time>
      </trkpt>
      <trkpt lat="44.24855" lon="2.5902">
        <ele>736.99</ele>
        <time>2022-07-12T15:23:34Z</time>
      </trkpt>
      <trkpt lat="44.24861" lon="2.5903">
        <ele>735.55</ele>
        <time>2022-07-12T15:23:41Z</time>
      </trkpt>
      <trkpt lat="44.24868" lon="2.59041">
        <ele>734.58</ele>
        <time>2022-07-12T15:23:48Z</time>
      </trkpt>
      <trkpt lat="44.24876" lon="2.59052">
        <ele>733.62</ele>
        <time>2022-07-12T15:23:56Z</time>
      </trkpt>
      <trkpt lat="44.24885" lon="2.59062">
        <ele>732.66</ele>
        <time>2022-07-12T15:24:05Z</time>
      </trkpt>
      <trkpt lat="44.24899" lon="2.59066">
        <ele>730.74</ele>
        <time>2022-07-12T15:24:19Z</time>
      </trkpt>
      <trkpt lat="44.24909" lon="2.59067">
        <ele>729.3</ele>
        <time>2022-07-12T15:24:27Z</time>
      </trkpt>
      <trkpt lat="44.2492" lon="2.59069">
        <ele>727.86</ele>
        <time>2022-07-12T15:24:34Z</time>
      </trkpt>
      <trkpt lat="44.24932" lon="2.5907">
        <ele>726.41</ele>
        <time>2022-07-12T15:24:40Z</time>
      </trkpt>
      <trkpt lat="44.24942" lon="2.5907">
        <ele>724.97</ele>
        <time>2022-07-12T15:24:47Z</time>
      </trkpt>
      <trkpt lat="44.24951" lon="2.59071">
        <ele>724.01</ele>
        <time>2022-07-12T15:24:55Z</time>
      </trkpt>
      <trkpt lat="44.24962" lon="2.5907">
        <ele>721.61</ele>
        <time>2022-07-12T15:25:03Z</time>
      </trkpt>
      <trkpt lat="44.24972" lon="2.59067">
        <ele>719.2</ele>
        <time>2022-07-12T15:25:11Z</time>
      </trkpt>
      <trkpt lat="44.24982" lon="2.59062">
        <ele>717.76</ele>
        <time>2022-07-12T15:25:17Z</time>
      </trkpt>
      <trkpt lat="44.24992" lon="2.59059">
        <ele>716.8</ele>
        <time>2022-07-12T15:25:24Z</time>
      </trkpt>
      <trkpt lat="44.25003" lon="2.59056">
        <ele>715.84</ele>
        <time>2022-07-12T15:25:31Z</time>
      </trkpt>
      <trkpt lat="44.25011" lon="2.59054">
        <ele>712.95</ele>
        <time>2022-07-12T15:25:38Z</time>
      </trkpt>
      <trkpt lat="44.25022" lon="2.59052">
        <ele>711.99</ele>
        <time>2022-07-12T15:25:46Z</time>
      </trkpt>
      <trkpt lat="44.25033" lon="2.59049">
        <ele>711.99</ele>
        <time>2022-07-12T15:25:54Z</time>
      </trkpt>
      <trkpt lat="44.25043" lon="2.59049">
        <ele>711.51</ele>
        <time>2022-07-12T15:26:01Z</time>
      </trkpt>
      <trkpt lat="44.25055" lon="2.59045">
        <ele>711.03</ele>
        <time>2022-07-12T15:26:08Z</time>
      </trkpt>
      <trkpt lat="44.25066" lon="2.59043">
        <ele>710.07</ele>
        <time>2022-07-12T15:26:15Z</time>
      </trkpt>
      <trkpt lat="44.25075" lon="2.59038">
        <ele>710.55</ele>
        <time>2022-07-12T15:26:22Z</time>
      </trkpt>
      <trkpt lat="44.25085" lon="2.59036">
        <ele>709.11</ele>
        <time>2022-07-12T15:26:29Z</time>
      </trkpt>
      <trkpt lat="44.25095" lon="2.59033">
        <ele>707.67</ele>
        <time>2022-07-12T15:26:36Z</time>
      </trkpt>
      <trkpt lat="44.25107" lon="2.59029">
        <ele>707.19</ele>
        <time>2022-07-12T15:26:43Z</time>
      </trkpt>
      <trkpt lat="44.25117" lon="2.59022">
        <ele>706.71</ele>
        <time>2022-07-12T15:26:51Z</time>
      </trkpt>
      <trkpt lat="44.25128" lon="2.59017">
        <ele>705.75</ele>
        <time>2022-07-12T15:26:59Z</time>
      </trkpt>
      <trkpt lat="44.25137" lon="2.59013">
        <ele>703.82</ele>
        <time>2022-07-12T15:27:07Z</time>
      </trkpt>
      <trkpt lat="44.25146" lon="2.59018">
        <ele>703.82</ele>
        <time>2022-07-12T15:27:13Z</time>
      </trkpt>
      <trkpt lat="44.25147" lon="2.59034">
        <ele>703.82</ele>
        <time>2022-07-12T15:27:22Z</time>
      </trkpt>
      <trkpt lat="44.2515" lon="2.59047">
        <ele>703.34</ele>
        <time>2022-07-12T15:27:30Z</time>
      </trkpt>
      <trkpt lat="44.2515" lon="2.59064">
        <ele>703.82</ele>
        <time>2022-07-12T15:27:39Z</time>
      </trkpt>
      <trkpt lat="44.2515" lon="2.59084">
        <ele>704.3</ele>
        <time>2022-07-12T15:27:49Z</time>
      </trkpt>
      <trkpt lat="44.25147" lon="2.59105">
        <ele>701.42</ele>
        <time>2022-07-12T15:28:01Z</time>
      </trkpt>
      <trkpt lat="44.25178" lon="2.59142">
        <ele>694.21</ele>
        <time>2022-07-12T15:28:56Z</time>
      </trkpt>
      <trkpt lat="44.2519" lon="2.59149">
        <ele>694.21</ele>
        <time>2022-07-12T15:29:05Z</time>
      </trkpt>
      <trkpt lat="44.25211" lon="2.59158">
        <ele>692.77</ele>
        <time>2022-07-12T15:29:21Z</time>
      </trkpt>
      <trkpt lat="44.25224" lon="2.59161">
        <ele>691.33</ele>
        <time>2022-07-12T15:29:30Z</time>
      </trkpt>
      <trkpt lat="44.25355" lon="2.59152">
        <ele>653.35</ele>
        <time>2022-07-12T15:35:12Z</time>
      </trkpt>
      <trkpt lat="44.25335" lon="2.59231">
        <ele>646.62</ele>
        <time>2022-07-12T15:36:10Z</time>
      </trkpt>
      <trkpt lat="44.25314" lon="2.5925">
        <ele>644.22</ele>
        <time>2022-07-12T15:36:30Z</time>
      </trkpt>
      <trkpt lat="44.253" lon="2.59267">
        <ele>643.74</ele>
        <time>2022-07-12T15:36:42Z</time>
      </trkpt>
      <trkpt lat="44.2527" lon="2.59292">
        <ele>638.45</ele>
        <time>2022-07-12T15:37:11Z</time>
      </trkpt>
      <trkpt lat="44.25256" lon="2.59305">
        <ele>637.49</ele>
        <time>2022-07-12T15:37:22Z</time>
      </trkpt>
      <trkpt lat="44.25245" lon="2.59317">
        <ele>638.45</ele>
        <time>2022-07-12T15:37:32Z</time>
      </trkpt>
      <trkpt lat="44.25224" lon="2.59328">
        <ele>635.09</ele>
        <time>2022-07-12T15:37:51Z</time>
      </trkpt>
      <trkpt lat="44.25531" lon="2.59162">
        <ele>597.12</ele>
        <time>2022-07-12T15:44:04Z</time>
      </trkpt>
      <trkpt lat="44.25545" lon="2.59156">
        <ele>602.88</ele>
        <time>2022-07-12T15:44:12Z</time>
      </trkpt>
      <trkpt lat="44.25557" lon="2.59153">
        <ele>600.96</ele>
        <time>2022-07-12T15:44:21Z</time>
      </trkpt>
      <trkpt lat="44.25566" lon="2.59148">
        <ele>598.08</ele>
        <time>2022-07-12T15:44:29Z</time>
      </trkpt>
      <trkpt lat="44.25577" lon="2.59137">
        <ele>598.08</ele>
        <time>2022-07-12T15:44:39Z</time>
      </trkpt>
      <trkpt lat="44.25585" lon="2.59127">
        <ele>597.12</ele>
        <time>2022-07-12T15:44:47Z</time>
      </trkpt>
      <trkpt lat="44.25596" lon="2.59115">
        <ele>596.15</ele>
        <time>2022-07-12T15:44:57Z</time>
      </trkpt>
      <trkpt lat="44.25609" lon="2.59104">
        <ele>595.67</ele>
        <time>2022-07-12T15:45:05Z</time>
      </trkpt>
      <trkpt lat="44.25621" lon="2.59082">
        <ele>595.19</ele>
        <time>2022-07-12T15:45:19Z</time>
      </trkpt>
      <trkpt lat="44.2565" lon="2.59056">
        <ele>593.75</ele>
        <time>2022-07-12T15:45:41Z</time>
      </trkpt>
      <trkpt lat="44.25663" lon="2.59047">
        <ele>592.31</ele>
        <time>2022-07-12T15:45:51Z</time>
      </trkpt>
      <trkpt lat="44.25672" lon="2.59027">
        <ele>590.39</ele>
        <time>2022-07-12T15:46:03Z</time>
      </trkpt>
      <trkpt lat="44.25701" lon="2.58982">
        <ele>585.1</ele>
        <time>2022-07-12T15:46:34Z</time>
      </trkpt>
      <trkpt lat="44.2571" lon="2.5895">
        <ele>578.37</ele>
        <time>2022-07-12T15:46:52Z</time>
      </trkpt>
      <trkpt lat="44.25715" lon="2.58939">
        <ele>579.33</ele>
        <time>2022-07-12T15:47:01Z</time>
      </trkpt>
      <trkpt lat="44.25721" lon="2.58919">
        <ele>577.89</ele>
        <time>2022-07-12T15:47:14Z</time>
      </trkpt>
      <trkpt lat="44.25734" lon="2.58882">
        <ele>575.49</ele>
        <time>2022-07-12T15:47:37Z</time>
      </trkpt>
      <trkpt lat="44.25751" lon="2.5883">
        <ele>573.08</ele>
        <time>2022-07-12T15:48:04Z</time>
      </trkpt>
      <trkpt lat="44.25771" lon="2.58788">
        <ele>571.64</ele>
        <time>2022-07-12T15:48:28Z</time>
      </trkpt>
      <trkpt lat="44.25784" lon="2.5877">
        <ele>570.68</ele>
        <time>2022-07-12T15:48:42Z</time>
      </trkpt>
      <trkpt lat="44.25826" lon="2.58661">
        <ele>564.43</ele>
        <time>2022-07-12T15:49:45Z</time>
      </trkpt>
      <trkpt lat="44.25925" lon="2.58597">
        <ele>537.03</ele>
        <time>2022-07-12T15:51:18Z</time>
      </trkpt>
      <trkpt lat="44.25965" lon="2.5848">
        <ele>500.98</ele>
        <time>2022-07-12T15:52:47Z</time>
      </trkpt>
      <trkpt lat="44.25966" lon="2.58465">
        <ele>500.98</ele>
        <time>2022-07-12T15:52:51Z</time>
      </trkpt>
      <trkpt lat="44.25968" lon="2.58447">
        <ele>500.98</ele>
        <time>2022-07-12T15:52:56Z</time>
      </trkpt>
      <trkpt lat="44.25971" lon="2.58424">
        <ele>500.5</ele>
        <time>2022-07-12T15:53:03Z</time>
      </trkpt>
      <trkpt lat="44.26014" lon="2.58345">
        <ele>506.27</ele>
        <time>2022-07-12T15:53:42Z</time>
      </trkpt>
      <trkpt lat="44.26068" lon="2.58243">
        <ele>523.58</ele>
        <time>2022-07-12T15:54:48Z</time>
      </trkpt>
      <trkpt lat="44.26053" lon="2.58194">
        <ele>527.42</ele>
        <time>2022-07-12T15:55:16Z</time>
      </trkpt>
      <trkpt lat="44.26041" lon="2.58193">
        <ele>527.42</ele>
        <time>2022-07-12T15:55:25Z</time>
      </trkpt>
      <trkpt lat="44.26027" lon="2.58192">
        <ele>527.42</ele>
        <time>2022-07-12T15:55:37Z</time>
      </trkpt>
      <trkpt lat="44.26011" lon="2.58185">
        <ele>527.42</ele>
        <time>2022-07-12T15:55:47Z</time>
      </trkpt>
      <trkpt lat="44.25995" lon="2.58182">
        <ele>527.42</ele>
        <time>2022-07-12T15:55:54Z</time>
      </trkpt>
      <trkpt lat="44.25984" lon="2.5818">
        <ele>527.42</ele>
        <time>2022-07-12T15:56:01Z</time>
      </trkpt>
      <trkpt lat="44.25968" lon="2.5818">
        <ele>527.42</ele>
        <time>2022-07-12T15:56:12Z</time>
      </trkpt>
      <trkpt lat="44.25955" lon="2.58176">
        <ele>527.42</ele>
        <time>2022-07-12T15:56:17Z</time>
      </trkpt>
      <trkpt lat="44.25942" lon="2.58173">
        <ele>527.42</ele>
        <time>2022-07-12T15:56:21Z</time>
      </trkpt>
      <trkpt lat="44.25929" lon="2.5817">
        <ele>527.42</ele>
        <time>2022-07-12T15:56:26Z</time>
      </trkpt>
      <trkpt lat="44.25912" lon="2.58164">
        <ele>526.94</ele>
        <time>2022-07-12T15:56:34Z</time>
      </trkpt>
      <trkpt lat="44.25899" lon="2.58161">
        <ele>526.94</ele>
        <time>2022-07-12T15:56:42Z</time>
      </trkpt>
      <trkpt lat="44.25879" lon="2.58151">
        <ele>526.94</ele>
        <time>2022-07-12T15:56:53Z</time>
      </trkpt>
      <trkpt lat="44.25864" lon="2.58146">
        <ele>526.94</ele>
        <time>2022-07-12T15:57:01Z</time>
      </trkpt>
      <trkpt lat="44.25853" lon="2.58142">
        <ele>526.94</ele>
        <time>2022-07-12T15:57:06Z</time>
      </trkpt>
      <trkpt lat="44.2584" lon="2.58135">
        <ele>526.94</ele>
        <time>2022-07-12T15:57:12Z</time>
      </trkpt>
      <trkpt lat="44.25828" lon="2.5813">
        <ele>526.94</ele>
        <time>2022-07-12T15:57:19Z</time>
      </trkpt>
      <trkpt lat="44.25816" lon="2.58122">
        <ele>526.94</ele>
        <time>2022-07-12T15:57:28Z</time>
      </trkpt>
      <trkpt lat="44.25784" lon="2.58101">
        <ele>527.42</ele>
        <time>2022-07-12T16:03:42Z</time>
      </trkpt>
      <trkpt lat="44.25774" lon="2.58091">
        <ele>525.98</ele>
        <time>2022-07-12T16:03:50Z</time>
      </trkpt>
      <trkpt lat="44.25765" lon="2.58085">
        <ele>525.02</ele>
        <time>2022-07-12T16:03:57Z</time>
      </trkpt>
      <trkpt lat="44.25757" lon="2.58077">
        <ele>525.5</ele>
        <time>2022-07-12T16:04:04Z</time>
      </trkpt>
      <trkpt lat="44.25745" lon="2.58071">
        <ele>525.98</ele>
        <time>2022-07-12T16:04:14Z</time>
      </trkpt>
      <trkpt lat="44.25732" lon="2.58065">
        <ele>525.98</ele>
        <time>2022-07-12T16:04:23Z</time>
      </trkpt>
      <trkpt lat="44.25721" lon="2.58061">
        <ele>525.98</ele>
        <time>2022-07-12T16:04:32Z</time>
      </trkpt>
      <trkpt lat="44.25709" lon="2.58055">
        <ele>525.02</ele>
        <time>2022-07-12T16:04:40Z</time>
      </trkpt>
      <trkpt lat="44.25698" lon="2.58049">
        <ele>524.06</ele>
        <time>2022-07-12T16:04:46Z</time>
      </trkpt>
      <trkpt lat="44.25686" lon="2.58042">
        <ele>522.61</ele>
        <time>2022-07-12T16:04:53Z</time>
      </trkpt>
      <trkpt lat="44.25675" lon="2.58038">
        <ele>521.65</ele>
        <time>2022-07-12T16:05:01Z</time>
      </trkpt>
      <trkpt lat="44.25663" lon="2.58042">
        <ele>520.69</ele>
        <time>2022-07-12T16:05:08Z</time>
      </trkpt>
      <trkpt lat="44.25651" lon="2.5805">
        <ele>521.17</ele>
        <time>2022-07-12T16:05:15Z</time>
      </trkpt>
      <trkpt lat="44.25641" lon="2.58057">
        <ele>526.94</ele>
        <time>2022-07-12T16:05:26Z</time>
      </trkpt>
      <trkpt lat="44.25607" lon="2.58104">
        <ele>535.11</ele>
        <time>2022-07-12T16:05:59Z</time>
      </trkpt>
      <trkpt lat="44.25587" lon="2.58126">
        <ele>538.48</ele>
        <time>2022-07-12T16:06:14Z</time>
      </trkpt>
      <trkpt lat="44.25571" lon="2.58132">
        <ele>539.92</ele>
        <time>2022-07-12T16:06:24Z</time>
      </trkpt>
      <trkpt lat="44.25555" lon="2.58139">
        <ele>545.69</ele>
        <time>2022-07-12T16:06:34Z</time>
      </trkpt>
      <trkpt lat="44.25538" lon="2.58149">
        <ele>554.34</ele>
        <time>2022-07-12T16:06:47Z</time>
      </trkpt>
      <trkpt lat="44.25507" lon="2.58172">
        <ele>566.83</ele>
        <time>2022-07-12T16:07:10Z</time>
      </trkpt>
      <trkpt lat="44.25458" lon="2.5822">
        <ele>585.58</ele>
        <time>2022-07-12T16:07:51Z</time>
      </trkpt>
      <trkpt lat="44.25449" lon="2.58228">
        <ele>585.58</ele>
        <time>2022-07-12T16:08:00Z</time>
      </trkpt>
      <trkpt lat="44.25441" lon="2.58238">
        <ele>583.66</ele>
        <time>2022-07-12T16:08:08Z</time>
      </trkpt>
      <trkpt lat="44.25432" lon="2.58248">
        <ele>583.18</ele>
        <time>2022-07-12T16:08:15Z</time>
      </trkpt>
      <trkpt lat="44.25412" lon="2.58276">
        <ele>578.85</ele>
        <time>2022-07-12T16:08:33Z</time>
      </trkpt>
      <trkpt lat="44.254" lon="2.58277">
        <ele>577.41</ele>
        <time>2022-07-12T16:08:39Z</time>
      </trkpt>
      <trkpt lat="44.25395" lon="2.58263">
        <ele>575.49</ele>
        <time>2022-07-12T16:08:47Z</time>
      </trkpt>
      <trkpt lat="44.25392" lon="2.58246">
        <ele>573.56</ele>
        <time>2022-07-12T16:08:55Z</time>
      </trkpt>
      <trkpt lat="44.25389" lon="2.58229">
        <ele>572.6</ele>
        <time>2022-07-12T16:09:03Z</time>
      </trkpt>
      <trkpt lat="44.25387" lon="2.58217">
        <ele>572.12</ele>
        <time>2022-07-12T16:09:09Z</time>
      </trkpt>
      <trkpt lat="44.25383" lon="2.58203">
        <ele>571.16</ele>
        <time>2022-07-12T16:09:17Z</time>
      </trkpt>
      <trkpt lat="44.25377" lon="2.5819">
        <ele>571.16</ele>
        <time>2022-07-12T16:09:24Z</time>
      </trkpt>
      <trkpt lat="44.25368" lon="2.5818">
        <ele>571.16</ele>
        <time>2022-07-12T16:09:33Z</time>
      </trkpt>
      <trkpt lat="44.25359" lon="2.58156">
        <ele>573.08</ele>
        <time>2022-07-12T16:09:47Z</time>
      </trkpt>
      <trkpt lat="44.25377" lon="2.58094">
        <ele>595.19</ele>
        <time>2022-07-12T16:10:29Z</time>
      </trkpt>
      <trkpt lat="44.25404" lon="2.5808">
        <ele>600</ele>
        <time>2022-07-12T16:10:49Z</time>
      </trkpt>
      <trkpt lat="44.2545" lon="2.58045">
        <ele>593.75</ele>
        <time>2022-07-12T16:11:21Z</time>
      </trkpt>
      <trkpt lat="44.25464" lon="2.5803">
        <ele>592.79</ele>
        <time>2022-07-12T16:11:31Z</time>
      </trkpt>
      <trkpt lat="44.25475" lon="2.58017">
        <ele>594.23</ele>
        <time>2022-07-12T16:11:41Z</time>
      </trkpt>
      <trkpt lat="44.25491" lon="2.57993">
        <ele>596.64</ele>
        <time>2022-07-12T16:11:56Z</time>
      </trkpt>
      <trkpt lat="44.25414" lon="2.57989">
        <ele>606.73</ele>
        <time>2022-07-12T16:13:36Z</time>
      </trkpt>
      <trkpt lat="44.25393" lon="2.5797">
        <ele>609.61</ele>
        <time>2022-07-12T16:13:54Z</time>
      </trkpt>
      <trkpt lat="44.25454" lon="2.57866">
        <ele>618.26</ele>
        <time>2022-07-12T16:14:58Z</time>
      </trkpt>
      <trkpt lat="44.25285" lon="2.57892">
        <ele>679.31</ele>
        <time>2022-07-12T16:17:44Z</time>
      </trkpt>
      <trkpt lat="44.25153" lon="2.57885">
        <ele>694.69</ele>
        <time>2022-07-12T16:20:39Z</time>
      </trkpt>
      <trkpt lat="44.25141" lon="2.57893">
        <ele>699.02</ele>
        <time>2022-07-12T16:20:47Z</time>
      </trkpt>
      <trkpt lat="44.25116" lon="2.57887">
        <ele>701.42</ele>
        <time>2022-07-12T16:21:05Z</time>
      </trkpt>
      <trkpt lat="44.25099" lon="2.57879">
        <ele>705.26</ele>
        <time>2022-07-12T16:21:17Z</time>
      </trkpt>
      <trkpt lat="44.25085" lon="2.57873">
        <ele>708.63</ele>
        <time>2022-07-12T16:21:28Z</time>
      </trkpt>
      <trkpt lat="44.25068" lon="2.57871">
        <ele>710.07</ele>
        <time>2022-07-12T16:21:37Z</time>
      </trkpt>
      <trkpt lat="44.25056" lon="2.57862">
        <ele>710.07</ele>
        <time>2022-07-12T16:21:43Z</time>
      </trkpt>
      <trkpt lat="44.25045" lon="2.57852">
        <ele>709.59</ele>
        <time>2022-07-12T16:21:51Z</time>
      </trkpt>
      <trkpt lat="44.25033" lon="2.57842">
        <ele>708.63</ele>
        <time>2022-07-12T16:22:01Z</time>
      </trkpt>
      <trkpt lat="44.25029" lon="2.5781">
        <ele>723.05</ele>
        <time>2022-07-12T16:22:13Z</time>
      </trkpt>
      <trkpt lat="44.25027" lon="2.57795">
        <ele>728.34</ele>
        <time>2022-07-12T16:22:19Z</time>
      </trkpt>
      <trkpt lat="44.25024" lon="2.57782">
        <ele>731.22</ele>
        <time>2022-07-12T16:22:25Z</time>
      </trkpt>
      <trkpt lat="44.25017" lon="2.5777">
        <ele>733.62</ele>
        <time>2022-07-12T16:22:34Z</time>
      </trkpt>
      <trkpt lat="44.25011" lon="2.57761">
        <ele>735.55</ele>
        <time>2022-07-12T16:22:39Z</time>
      </trkpt>
      <trkpt lat="44.25001" lon="2.57763">
        <ele>737.95</ele>
        <time>2022-07-12T16:22:47Z</time>
      </trkpt>
      <trkpt lat="44.24992" lon="2.57773">
        <ele>739.87</ele>
        <time>2022-07-12T16:22:54Z</time>
      </trkpt>
      <trkpt lat="44.24983" lon="2.57781">
        <ele>741.31</ele>
        <time>2022-07-12T16:23:00Z</time>
      </trkpt>
      <trkpt lat="44.24974" lon="2.57788">
        <ele>742.76</ele>
        <time>2022-07-12T16:23:07Z</time>
      </trkpt>
      <trkpt lat="44.24956" lon="2.57808">
        <ele>745.64</ele>
        <time>2022-07-12T16:23:24Z</time>
      </trkpt>
      <trkpt lat="44.24945" lon="2.57819">
        <ele>746.6</ele>
        <time>2022-07-12T16:23:33Z</time>
      </trkpt>
      <trkpt lat="44.24928" lon="2.57844">
        <ele>749</ele>
        <time>2022-07-12T16:23:51Z</time>
      </trkpt>
      <trkpt lat="44.24923" lon="2.57858">
        <ele>749.49</ele>
        <time>2022-07-12T16:23:58Z</time>
      </trkpt>
      <trkpt lat="44.24921" lon="2.57875">
        <ele>749.97</ele>
        <time>2022-07-12T16:24:06Z</time>
      </trkpt>
      <trkpt lat="44.24919" lon="2.57891">
        <ele>749.97</ele>
        <time>2022-07-12T16:24:14Z</time>
      </trkpt>
      <trkpt lat="44.24912" lon="2.57905">
        <ele>752.85</ele>
        <time>2022-07-12T16:24:22Z</time>
      </trkpt>
      <trkpt lat="44.24906" lon="2.57922">
        <ele>752.37</ele>
        <time>2022-07-12T16:24:30Z</time>
      </trkpt>
      <trkpt lat="44.24899" lon="2.57935">
        <ele>752.37</ele>
        <time>2022-07-12T16:24:37Z</time>
      </trkpt>
      <trkpt lat="44.24893" lon="2.57947">
        <ele>753.81</ele>
        <time>2022-07-12T16:24:45Z</time>
      </trkpt>
      <trkpt lat="44.24884" lon="2.57959">
        <ele>754.77</ele>
        <time>2022-07-12T16:24:52Z</time>
      </trkpt>
      <trkpt lat="44.24873" lon="2.57964">
        <ele>755.25</ele>
        <time>2022-07-12T16:24:59Z</time>
      </trkpt>
      <trkpt lat="44.2486" lon="2.5797">
        <ele>756.21</ele>
        <time>2022-07-12T16:25:09Z</time>
      </trkpt>
      <trkpt lat="44.24849" lon="2.5798">
        <ele>757.18</ele>
        <time>2022-07-12T16:25:17Z</time>
      </trkpt>
      <trkpt lat="44.2484" lon="2.57989">
        <ele>756.21</ele>
        <time>2022-07-12T16:25:25Z</time>
      </trkpt>
      <trkpt lat="44.24828" lon="2.57998">
        <ele>757.18</ele>
        <time>2022-07-12T16:25:34Z</time>
      </trkpt>
      <trkpt lat="44.24819" lon="2.58009">
        <ele>756.21</ele>
        <time>2022-07-12T16:25:43Z</time>
      </trkpt>
      <trkpt lat="44.24807" lon="2.5802">
        <ele>757.66</ele>
        <time>2022-07-12T16:25:49Z</time>
      </trkpt>
      <trkpt lat="44.24797" lon="2.5803">
        <ele>758.14</ele>
        <time>2022-07-12T16:25:56Z</time>
      </trkpt>
      <trkpt lat="44.24788" lon="2.58038">
        <ele>757.18</ele>
        <time>2022-07-12T16:26:05Z</time>
      </trkpt>
      <trkpt lat="44.24781" lon="2.58048">
        <ele>754.77</ele>
        <time>2022-07-12T16:26:13Z</time>
      </trkpt>
      <trkpt lat="44.24773" lon="2.58059">
        <ele>752.85</ele>
        <time>2022-07-12T16:26:21Z</time>
      </trkpt>
      <trkpt lat="44.24766" lon="2.5807">
        <ele>751.89</ele>
        <time>2022-07-12T16:26:28Z</time>
      </trkpt>
      <trkpt lat="44.24757" lon="2.58082">
        <ele>752.85</ele>
        <time>2022-07-12T16:26:35Z</time>
      </trkpt>
      <trkpt lat="44.24744" lon="2.58094">
        <ele>756.21</ele>
        <time>2022-07-12T16:26:42Z</time>
      </trkpt>
      <trkpt lat="44.24735" lon="2.58106">
        <ele>758.14</ele>
        <time>2022-07-12T16:26:50Z</time>
      </trkpt>
      <trkpt lat="44.24729" lon="2.58116">
        <ele>758.14</ele>
        <time>2022-07-12T16:26:56Z</time>
      </trkpt>
      <trkpt lat="44.24721" lon="2.58125">
        <ele>757.18</ele>
        <time>2022-07-12T16:27:02Z</time>
      </trkpt>
      <trkpt lat="44.24714" lon="2.58135">
        <ele>756.21</ele>
        <time>2022-07-12T16:27:10Z</time>
      </trkpt>
      <trkpt lat="44.24707" lon="2.58148">
        <ele>756.21</ele>
        <time>2022-07-12T16:27:19Z</time>
      </trkpt>
      <trkpt lat="44.24696" lon="2.58162">
        <ele>757.18</ele>
        <time>2022-07-12T16:27:26Z</time>
      </trkpt>
      <trkpt lat="44.24685" lon="2.58168">
        <ele>757.18</ele>
        <time>2022-07-12T16:27:31Z</time>
      </trkpt>
      <trkpt lat="44.24677" lon="2.58171">
        <ele>756.69</ele>
        <time>2022-07-12T16:27:37Z</time>
      </trkpt>
      <trkpt lat="44.24668" lon="2.58167">
        <ele>756.69</ele>
        <time>2022-07-12T16:27:44Z</time>
      </trkpt>
      <trkpt lat="44.24659" lon="2.58161">
        <ele>757.18</ele>
        <time>2022-07-12T16:27:51Z</time>
      </trkpt>
      <trkpt lat="44.24649" lon="2.58155">
        <ele>757.66</ele>
        <time>2022-07-12T16:27:58Z</time>
      </trkpt>
      <trkpt lat="44.2464" lon="2.58149">
        <ele>757.66</ele>
        <time>2022-07-12T16:28:05Z</time>
      </trkpt>
      <trkpt lat="44.24632" lon="2.58141">
        <ele>757.66</ele>
        <time>2022-07-12T16:28:13Z</time>
      </trkpt>
      <trkpt lat="44.24622" lon="2.58133">
        <ele>756.69</ele>
        <time>2022-07-12T16:28:22Z</time>
      </trkpt>
      <trkpt lat="44.24604" lon="2.58126">
        <ele>760.54</ele>
        <time>2022-07-12T16:28:30Z</time>
      </trkpt>
      <trkpt lat="44.24594" lon="2.58133">
        <ele>763.9</ele>
        <time>2022-07-12T16:28:37Z</time>
      </trkpt>
      <trkpt lat="44.24586" lon="2.58141">
        <ele>764.87</ele>
        <time>2022-07-12T16:28:44Z</time>
      </trkpt>
      <trkpt lat="44.24578" lon="2.5815">
        <ele>765.83</ele>
        <time>2022-07-12T16:28:51Z</time>
      </trkpt>
      <trkpt lat="44.2457" lon="2.58159">
        <ele>765.83</ele>
        <time>2022-07-12T16:28:58Z</time>
      </trkpt>
      <trkpt lat="44.24569" lon="2.58172">
        <ele>766.79</ele>
        <time>2022-07-12T16:29:05Z</time>
      </trkpt>
      <trkpt lat="44.24573" lon="2.58184">
        <ele>767.27</ele>
        <time>2022-07-12T16:29:12Z</time>
      </trkpt>
      <trkpt lat="44.24577" lon="2.58197">
        <ele>767.75</ele>
        <time>2022-07-12T16:29:19Z</time>
      </trkpt>
      <trkpt lat="44.24581" lon="2.58209">
        <ele>768.23</ele>
        <time>2022-07-12T16:29:26Z</time>
      </trkpt>
      <trkpt lat="44.24586" lon="2.58222">
        <ele>768.71</ele>
        <time>2022-07-12T16:29:33Z</time>
      </trkpt>
      <trkpt lat="44.2459" lon="2.58234">
        <ele>768.23</ele>
        <time>2022-07-12T16:29:40Z</time>
      </trkpt>
      <trkpt lat="44.24595" lon="2.58246">
        <ele>768.23</ele>
        <time>2022-07-12T16:29:47Z</time>
      </trkpt>
      <trkpt lat="44.24599" lon="2.58258">
        <ele>768.71</ele>
        <time>2022-07-12T16:29:54Z</time>
      </trkpt>
      <trkpt lat="44.24603" lon="2.58271">
        <ele>768.23</ele>
        <time>2022-07-12T16:30:01Z</time>
      </trkpt>
      <trkpt lat="44.24606" lon="2.58286">
        <ele>767.75</ele>
        <time>2022-07-12T16:30:09Z</time>
      </trkpt>
      <trkpt lat="44.24609" lon="2.58301">
        <ele>767.27</ele>
        <time>2022-07-12T16:30:17Z</time>
      </trkpt>
      <trkpt lat="44.24613" lon="2.58317">
        <ele>766.31</ele>
        <time>2022-07-12T16:30:25Z</time>
      </trkpt>
      <trkpt lat="44.24615" lon="2.58338">
        <ele>764.87</ele>
        <time>2022-07-12T16:30:37Z</time>
      </trkpt>
      <trkpt lat="44.24617" lon="2.58363">
        <ele>763.42</ele>
        <time>2022-07-12T16:30:49Z</time>
      </trkpt>
      <trkpt lat="44.24614" lon="2.58415">
        <ele>760.54</ele>
        <time>2022-07-12T16:31:16Z</time>
      </trkpt>
      <trkpt lat="44.24609" lon="2.58432">
        <ele>760.54</ele>
        <time>2022-07-12T16:31:23Z</time>
      </trkpt>
      <trkpt lat="44.24598" lon="2.58446">
        <ele>757.18</ele>
        <time>2022-07-12T16:31:53Z</time>
      </trkpt>
      <trkpt lat="44.24585" lon="2.58448">
        <ele>757.18</ele>
        <time>2022-07-12T16:32:02Z</time>
      </trkpt>
      <trkpt lat="44.24558" lon="2.58434">
        <ele>752.37</ele>
        <time>2022-07-12T16:32:26Z</time>
      </trkpt>
      <trkpt lat="44.24534" lon="2.58419">
        <ele>747.08</ele>
        <time>2022-07-12T16:32:46Z</time>
      </trkpt>
      <trkpt lat="44.24357" lon="2.58391">
        <ele>694.69</ele>
        <time>2022-07-12T16:35:01Z</time>
      </trkpt>
      <trkpt lat="44.24339" lon="2.58391">
        <ele>699.5</ele>
        <time>2022-07-12T16:35:10Z</time>
      </trkpt>
      <trkpt lat="44.24321" lon="2.58393">
        <ele>707.19</ele>
        <time>2022-07-12T16:35:19Z</time>
      </trkpt>
      <trkpt lat="44.24301" lon="2.58417">
        <ele>728.34</ele>
        <time>2022-07-12T16:35:28Z</time>
      </trkpt>
      <trkpt lat="44.24295" lon="2.58434">
        <ele>730.74</ele>
        <time>2022-07-12T16:35:35Z</time>
      </trkpt>
      <trkpt lat="44.24292" lon="2.58448">
        <ele>732.66</ele>
        <time>2022-07-12T16:35:43Z</time>
      </trkpt>
      <trkpt lat="44.24292" lon="2.58447">
        <ele>738.43</ele>
        <time>2022-07-12T16:36:32Z</time>
      </trkpt>
      <trkpt lat="44.24296" lon="2.58429">
        <ele>739.39</ele>
        <time>2022-07-12T16:36:38Z</time>
      </trkpt>
      <trkpt lat="44.243" lon="2.58408">
        <ele>740.35</ele>
        <time>2022-07-12T16:36:41Z</time>
      </trkpt>
      <trkpt lat="44.24302" lon="2.58393">
        <ele>741.31</ele>
        <time>2022-07-12T16:36:43Z</time>
      </trkpt>
      <trkpt lat="44.24305" lon="2.58379">
        <ele>742.28</ele>
        <time>2022-07-12T16:36:45Z</time>
      </trkpt>
      <trkpt lat="44.24307" lon="2.58364">
        <ele>742.76</ele>
        <time>2022-07-12T16:36:47Z</time>
      </trkpt>
      <trkpt lat="44.2431" lon="2.58348">
        <ele>743.24</ele>
        <time>2022-07-12T16:36:49Z</time>
      </trkpt>
      <trkpt lat="44.24312" lon="2.58332">
        <ele>743.72</ele>
        <time>2022-07-12T16:36:51Z</time>
      </trkpt>
      <trkpt lat="44.24313" lon="2.58318">
        <ele>743.72</ele>
        <time>2022-07-12T16:36:53Z</time>
      </trkpt>
      <trkpt lat="44.24314" lon="2.58303">
        <ele>743.72</ele>
        <time>2022-07-12T16:36:55Z</time>
      </trkpt>
      <trkpt lat="44.24315" lon="2.58289">
        <ele>744.2</ele>
        <time>2022-07-12T16:36:57Z</time>
      </trkpt>
      <trkpt lat="44.24315" lon="2.58275">
        <ele>744.2</ele>
        <time>2022-07-12T16:36:59Z</time>
      </trkpt>
      <trkpt lat="44.24314" lon="2.5826">
        <ele>744.68</ele>
        <time>2022-07-12T16:37:01Z</time>
      </trkpt>
      <trkpt lat="44.24315" lon="2.58246">
        <ele>744.68</ele>
        <time>2022-07-12T16:37:03Z</time>
      </trkpt>
      <trkpt lat="44.24315" lon="2.58231">
        <ele>744.68</ele>
        <time>2022-07-12T16:37:05Z</time>
      </trkpt>
      <trkpt lat="44.24314" lon="2.58217">
        <ele>745.16</ele>
        <time>2022-07-12T16:37:07Z</time>
      </trkpt>
      <trkpt lat="44.24314" lon="2.58203">
        <ele>745.16</ele>
        <time>2022-07-12T16:37:09Z</time>
      </trkpt>
      <trkpt lat="44.24313" lon="2.58188">
        <ele>745.64</ele>
        <time>2022-07-12T16:37:11Z</time>
      </trkpt>
      <trkpt lat="44.24313" lon="2.58174">
        <ele>746.12</ele>
        <time>2022-07-12T16:37:13Z</time>
      </trkpt>
      <trkpt lat="44.24314" lon="2.5816">
        <ele>746.6</ele>
        <time>2022-07-12T16:37:15Z</time>
      </trkpt>
      <trkpt lat="44.24315" lon="2.58146">
        <ele>746.6</ele>
        <time>2022-07-12T16:37:17Z</time>
      </trkpt>
      <trkpt lat="44.24316" lon="2.58132">
        <ele>747.08</ele>
        <time>2022-07-12T16:37:19Z</time>
      </trkpt>
      <trkpt lat="44.24317" lon="2.58119">
        <ele>747.56</ele>
        <time>2022-07-12T16:37:21Z</time>
      </trkpt>
      <trkpt lat="44.24318" lon="2.58105">
        <ele>748.04</ele>
        <time>2022-07-12T16:37:23Z</time>
      </trkpt>
      <trkpt lat="44.2432" lon="2.58091">
        <ele>749</ele>
        <time>2022-07-12T16:37:25Z</time>
      </trkpt>
      <trkpt lat="44.24322" lon="2.58079">
        <ele>749.49</ele>
        <time>2022-07-12T16:37:27Z</time>
      </trkpt>
      <trkpt lat="44.24325" lon="2.58066">
        <ele>750.45</ele>
        <time>2022-07-12T16:37:29Z</time>
      </trkpt>
      <trkpt lat="44.24328" lon="2.58053">
        <ele>751.41</ele>
        <time>2022-07-12T16:37:31Z</time>
      </trkpt>
      <trkpt lat="44.24329" lon="2.5804">
        <ele>751.89</ele>
        <time>2022-07-12T16:37:33Z</time>
      </trkpt>
      <trkpt lat="44.2433" lon="2.58023">
        <ele>753.33</ele>
        <time>2022-07-12T16:37:36Z</time>
      </trkpt>
      <trkpt lat="44.24332" lon="2.58004">
        <ele>754.77</ele>
        <time>2022-07-12T16:37:39Z</time>
      </trkpt>
      <trkpt lat="44.24334" lon="2.57986">
        <ele>755.73</ele>
        <time>2022-07-12T16:37:42Z</time>
      </trkpt>
      <trkpt lat="44.24336" lon="2.57966">
        <ele>757.18</ele>
        <time>2022-07-12T16:37:45Z</time>
      </trkpt>
      <trkpt lat="44.24337" lon="2.57953">
        <ele>757.66</ele>
        <time>2022-07-12T16:37:47Z</time>
      </trkpt>
      <trkpt lat="44.2434" lon="2.57934">
        <ele>758.62</ele>
        <time>2022-07-12T16:37:50Z</time>
      </trkpt>
      <trkpt lat="44.24343" lon="2.57917">
        <ele>759.1</ele>
        <time>2022-07-12T16:37:53Z</time>
      </trkpt>
      <trkpt lat="44.24347" lon="2.579">
        <ele>759.58</ele>
        <time>2022-07-12T16:37:56Z</time>
      </trkpt>
      <trkpt lat="44.2435" lon="2.57884">
        <ele>760.06</ele>
        <time>2022-07-12T16:38:00Z</time>
      </trkpt>
      <trkpt lat="44.24353" lon="2.57869">
        <ele>760.54</ele>
        <time>2022-07-12T16:38:07Z</time>
      </trkpt>
      <trkpt lat="44.24353" lon="2.57856">
        <ele>760.54</ele>
        <time>2022-07-12T16:38:15Z</time>
      </trkpt>
      <trkpt lat="44.24346" lon="2.57843">
        <ele>759.58</ele>
        <time>2022-07-12T16:38:22Z</time>
      </trkpt>
      <trkpt lat="44.24335" lon="2.57835">
        <ele>757.66</ele>
        <time>2022-07-12T16:38:29Z</time>
      </trkpt>
      <trkpt lat="44.24326" lon="2.5783">
        <ele>756.21</ele>
        <time>2022-07-12T16:38:35Z</time>
      </trkpt>
      <trkpt lat="44.24317" lon="2.57825">
        <ele>756.21</ele>
        <time>2022-07-12T16:38:42Z</time>
      </trkpt>
      <trkpt lat="44.24307" lon="2.57819">
        <ele>755.73</ele>
        <time>2022-07-12T16:38:49Z</time>
      </trkpt>
      <trkpt lat="44.24298" lon="2.57817">
        <ele>755.73</ele>
        <time>2022-07-12T16:38:55Z</time>
      </trkpt>
      <trkpt lat="44.24289" lon="2.57812">
        <ele>754.77</ele>
        <time>2022-07-12T16:39:01Z</time>
      </trkpt>
      <trkpt lat="44.24279" lon="2.57807">
        <ele>754.29</ele>
        <time>2022-07-12T16:39:08Z</time>
      </trkpt>
      <trkpt lat="44.2427" lon="2.57801">
        <ele>753.33</ele>
        <time>2022-07-12T16:39:13Z</time>
      </trkpt>
      <trkpt lat="44.2426" lon="2.57796">
        <ele>752.85</ele>
        <time>2022-07-12T16:39:20Z</time>
      </trkpt>
      <trkpt lat="44.2425" lon="2.57792">
        <ele>751.89</ele>
        <time>2022-07-12T16:39:26Z</time>
      </trkpt>
      <trkpt lat="44.2424" lon="2.57786">
        <ele>751.89</ele>
        <time>2022-07-12T16:39:33Z</time>
      </trkpt>
      <trkpt lat="44.24232" lon="2.57779">
        <ele>751.41</ele>
        <time>2022-07-12T16:39:39Z</time>
      </trkpt>
      <trkpt lat="44.24222" lon="2.57773">
        <ele>749.97</ele>
        <time>2022-07-12T16:39:46Z</time>
      </trkpt>
      <trkpt lat="44.24213" lon="2.57767">
        <ele>749</ele>
        <time>2022-07-12T16:39:52Z</time>
      </trkpt>
      <trkpt lat="44.24204" lon="2.57762">
        <ele>749</ele>
        <time>2022-07-12T16:39:59Z</time>
      </trkpt>
      <trkpt lat="44.24194" lon="2.57756">
        <ele>748.52</ele>
        <time>2022-07-12T16:40:05Z</time>
      </trkpt>
      <trkpt lat="44.24185" lon="2.57751">
        <ele>748.04</ele>
        <time>2022-07-12T16:40:11Z</time>
      </trkpt>
      <trkpt lat="44.24176" lon="2.57745">
        <ele>748.04</ele>
        <time>2022-07-12T16:40:18Z</time>
      </trkpt>
      <trkpt lat="44.24166" lon="2.57741">
        <ele>747.56</ele>
        <time>2022-07-12T16:40:24Z</time>
      </trkpt>
      <trkpt lat="44.24157" lon="2.57737">
        <ele>747.08</ele>
        <time>2022-07-12T16:40:30Z</time>
      </trkpt>
      <trkpt lat="44.24148" lon="2.57732">
        <ele>746.6</ele>
        <time>2022-07-12T16:40:36Z</time>
      </trkpt>
      <trkpt lat="44.24139" lon="2.57728">
        <ele>745.64</ele>
        <time>2022-07-12T16:40:42Z</time>
      </trkpt>
      <trkpt lat="44.2413" lon="2.57724">
        <ele>745.16</ele>
        <time>2022-07-12T16:40:48Z</time>
      </trkpt>
      <trkpt lat="44.24121" lon="2.57719">
        <ele>744.2</ele>
        <time>2022-07-12T16:40:54Z</time>
      </trkpt>
      <trkpt lat="44.24111" lon="2.57714">
        <ele>743.24</ele>
        <time>2022-07-12T16:41:00Z</time>
      </trkpt>
      <trkpt lat="44.24102" lon="2.57711">
        <ele>742.76</ele>
        <time>2022-07-12T16:41:06Z</time>
      </trkpt>
      <trkpt lat="44.24091" lon="2.57706">
        <ele>742.28</ele>
        <time>2022-07-12T16:41:13Z</time>
      </trkpt>
      <trkpt lat="44.24081" lon="2.57702">
        <ele>742.28</ele>
        <time>2022-07-12T16:41:17Z</time>
      </trkpt>
      <trkpt lat="44.2407" lon="2.57697">
        <ele>742.28</ele>
        <time>2022-07-12T16:41:22Z</time>
      </trkpt>
      <trkpt lat="44.24061" lon="2.57695">
        <ele>741.31</ele>
        <time>2022-07-12T16:41:28Z</time>
      </trkpt>
      <trkpt lat="44.24052" lon="2.5769">
        <ele>740.83</ele>
        <time>2022-07-12T16:41:35Z</time>
      </trkpt>
      <trkpt lat="44.24042" lon="2.57686">
        <ele>740.83</ele>
        <time>2022-07-12T16:41:41Z</time>
      </trkpt>
      <trkpt lat="44.24031" lon="2.57682">
        <ele>740.35</ele>
        <time>2022-07-12T16:41:48Z</time>
      </trkpt>
      <trkpt lat="44.24021" lon="2.57678">
        <ele>740.35</ele>
        <time>2022-07-12T16:41:55Z</time>
      </trkpt>
      <trkpt lat="44.24011" lon="2.57674">
        <ele>739.87</ele>
        <time>2022-07-12T16:42:01Z</time>
      </trkpt>
      <trkpt lat="44.24001" lon="2.5767">
        <ele>739.39</ele>
        <time>2022-07-12T16:42:08Z</time>
      </trkpt>
      <trkpt lat="44.2399" lon="2.57666">
        <ele>738.91</ele>
        <time>2022-07-12T16:42:15Z</time>
      </trkpt>
      <trkpt lat="44.23981" lon="2.57661">
        <ele>737.47</ele>
        <time>2022-07-12T16:42:21Z</time>
      </trkpt>
      <trkpt lat="44.23971" lon="2.57656">
        <ele>738.43</ele>
        <time>2022-07-12T16:42:27Z</time>
      </trkpt>
      <trkpt lat="44.23962" lon="2.57651">
        <ele>738.43</ele>
        <time>2022-07-12T16:42:33Z</time>
      </trkpt>
      <trkpt lat="44.23952" lon="2.57646">
        <ele>737.95</ele>
        <time>2022-07-12T16:42:40Z</time>
      </trkpt>
      <trkpt lat="44.23943" lon="2.57639">
        <ele>737.95</ele>
        <time>2022-07-12T16:42:46Z</time>
      </trkpt>
      <trkpt lat="44.23934" lon="2.57634">
        <ele>738.43</ele>
        <time>2022-07-12T16:42:53Z</time>
      </trkpt>
      <trkpt lat="44.23924" lon="2.57635">
        <ele>738.43</ele>
        <time>2022-07-12T16:43:00Z</time>
      </trkpt>
      <trkpt lat="44.23915" lon="2.57644">
        <ele>738.43</ele>
        <time>2022-07-12T16:43:07Z</time>
      </trkpt>
      <trkpt lat="44.23907" lon="2.57653">
        <ele>737.95</ele>
        <time>2022-07-12T16:43:14Z</time>
      </trkpt>
      <trkpt lat="44.23898" lon="2.57661">
        <ele>737.47</ele>
        <time>2022-07-12T16:43:21Z</time>
      </trkpt>
      <trkpt lat="44.2389" lon="2.5767">
        <ele>737.47</ele>
        <time>2022-07-12T16:43:28Z</time>
      </trkpt>
      <trkpt lat="44.23881" lon="2.57678">
        <ele>737.47</ele>
        <time>2022-07-12T16:43:35Z</time>
      </trkpt>
      <trkpt lat="44.23872" lon="2.57687">
        <ele>736.99</ele>
        <time>2022-07-12T16:43:42Z</time>
      </trkpt>
      <trkpt lat="44.23863" lon="2.57696">
        <ele>736.51</ele>
        <time>2022-07-12T16:43:49Z</time>
      </trkpt>
      <trkpt lat="44.23854" lon="2.57705">
        <ele>736.03</ele>
        <time>2022-07-12T16:43:56Z</time>
      </trkpt>
      <trkpt lat="44.23845" lon="2.57716">
        <ele>736.03</ele>
        <time>2022-07-12T16:44:04Z</time>
      </trkpt>
      <trkpt lat="44.23836" lon="2.57726">
        <ele>733.62</ele>
        <time>2022-07-12T16:44:12Z</time>
      </trkpt>
      <trkpt lat="44.23827" lon="2.57736">
        <ele>732.18</ele>
        <time>2022-07-12T16:44:19Z</time>
      </trkpt>
      <trkpt lat="44.23817" lon="2.57745">
        <ele>732.18</ele>
        <time>2022-07-12T16:44:27Z</time>
      </trkpt>
      <trkpt lat="44.23806" lon="2.57753">
        <ele>732.18</ele>
        <time>2022-07-12T16:44:35Z</time>
      </trkpt>
      <trkpt lat="44.23797" lon="2.57761">
        <ele>731.22</ele>
        <time>2022-07-12T16:44:42Z</time>
      </trkpt>
      <trkpt lat="44.23787" lon="2.57768">
        <ele>729.78</ele>
        <time>2022-07-12T16:44:49Z</time>
      </trkpt>
      <trkpt lat="44.23777" lon="2.57777">
        <ele>728.34</ele>
        <time>2022-07-12T16:44:57Z</time>
      </trkpt>
      <trkpt lat="44.23767" lon="2.57784">
        <ele>726.89</ele>
        <time>2022-07-12T16:45:04Z</time>
      </trkpt>
      <trkpt lat="44.23759" lon="2.5779">
        <ele>724.01</ele>
        <time>2022-07-12T16:45:12Z</time>
      </trkpt>
      <trkpt lat="44.23749" lon="2.57799">
        <ele>722.09</ele>
        <time>2022-07-12T16:45:20Z</time>
      </trkpt>
      <trkpt lat="44.23739" lon="2.57807">
        <ele>722.09</ele>
        <time>2022-07-12T16:45:28Z</time>
      </trkpt>
      <trkpt lat="44.23729" lon="2.57815">
        <ele>720.65</ele>
        <time>2022-07-12T16:45:37Z</time>
      </trkpt>
      <trkpt lat="44.23717" lon="2.57825">
        <ele>728.34</ele>
        <time>2022-07-12T16:45:45Z</time>
      </trkpt>
      <trkpt lat="44.23704" lon="2.57833">
        <ele>736.03</ele>
        <time>2022-07-12T16:46:02Z</time>
      </trkpt>
      <trkpt lat="44.23695" lon="2.57839">
        <ele>735.07</ele>
        <time>2022-07-12T16:46:09Z</time>
      </trkpt>
      <trkpt lat="44.23685" lon="2.57843">
        <ele>733.62</ele>
        <time>2022-07-12T16:46:16Z</time>
      </trkpt>
      <trkpt lat="44.23675" lon="2.57846">
        <ele>732.18</ele>
        <time>2022-07-12T16:46:23Z</time>
      </trkpt>
      <trkpt lat="44.23665" lon="2.57846">
        <ele>731.22</ele>
        <time>2022-07-12T16:46:30Z</time>
      </trkpt>
      <trkpt lat="44.23655" lon="2.57842">
        <ele>730.26</ele>
        <time>2022-07-12T16:46:37Z</time>
      </trkpt>
      <trkpt lat="44.23647" lon="2.57836">
        <ele>730.26</ele>
        <time>2022-07-12T16:46:43Z</time>
      </trkpt>
      <trkpt lat="44.23638" lon="2.57827">
        <ele>728.34</ele>
        <time>2022-07-12T16:46:50Z</time>
      </trkpt>
      <trkpt lat="44.23628" lon="2.57822">
        <ele>726.89</ele>
        <time>2022-07-12T16:46:58Z</time>
      </trkpt>
      <trkpt lat="44.23622" lon="2.57831">
        <ele>724.97</ele>
        <time>2022-07-12T16:47:06Z</time>
      </trkpt>
      <trkpt lat="44.23624" lon="2.57844">
        <ele>724.49</ele>
        <time>2022-07-12T16:47:13Z</time>
      </trkpt>
      <trkpt lat="44.23629" lon="2.57854">
        <ele>723.05</ele>
        <time>2022-07-12T16:47:20Z</time>
      </trkpt>
      <trkpt lat="44.23634" lon="2.57866">
        <ele>722.09</ele>
        <time>2022-07-12T16:47:28Z</time>
      </trkpt>
      <trkpt lat="44.23648" lon="2.57889">
        <ele>719.68</ele>
        <time>2022-07-12T16:47:42Z</time>
      </trkpt>
      <trkpt lat="44.23657" lon="2.57908">
        <ele>718.72</ele>
        <time>2022-07-12T16:47:53Z</time>
      </trkpt>
      <trkpt lat="44.23666" lon="2.57922">
        <ele>719.68</ele>
        <time>2022-07-12T16:48:00Z</time>
      </trkpt>
      <trkpt lat="44.23671" lon="2.57935">
        <ele>719.2</ele>
        <time>2022-07-12T16:48:08Z</time>
      </trkpt>
      <trkpt lat="44.23676" lon="2.57946">
        <ele>717.28</ele>
        <time>2022-07-12T16:48:15Z</time>
      </trkpt>
      <trkpt lat="44.23681" lon="2.57958">
        <ele>716.32</ele>
        <time>2022-07-12T16:48:22Z</time>
      </trkpt>
      <trkpt lat="44.23685" lon="2.57971">
        <ele>715.84</ele>
        <time>2022-07-12T16:48:31Z</time>
      </trkpt>
      <trkpt lat="44.2369" lon="2.57988">
        <ele>714.4</ele>
        <time>2022-07-12T16:48:40Z</time>
      </trkpt>
      <trkpt lat="44.23691" lon="2.58004">
        <ele>714.88</ele>
        <time>2022-07-12T16:48:48Z</time>
      </trkpt>
      <trkpt lat="44.23691" lon="2.58021">
        <ele>714.4</ele>
        <time>2022-07-12T16:48:56Z</time>
      </trkpt>
      <trkpt lat="44.23692" lon="2.58036">
        <ele>713.44</ele>
        <time>2022-07-12T16:49:04Z</time>
      </trkpt>
      <trkpt lat="44.23691" lon="2.58063">
        <ele>711.99</ele>
        <time>2022-07-12T16:49:16Z</time>
      </trkpt>
      <trkpt lat="44.23689" lon="2.58084">
        <ele>710.55</ele>
        <time>2022-07-12T16:49:24Z</time>
      </trkpt>
      <trkpt lat="44.2369" lon="2.58107">
        <ele>708.63</ele>
        <time>2022-07-12T16:49:36Z</time>
      </trkpt>
      <trkpt lat="44.23691" lon="2.58123">
        <ele>707.67</ele>
        <time>2022-07-12T16:49:45Z</time>
      </trkpt>
      <trkpt lat="44.23696" lon="2.58139">
        <ele>707.67</ele>
        <time>2022-07-12T16:49:53Z</time>
      </trkpt>
      <trkpt lat="44.23706" lon="2.58157">
        <ele>707.67</ele>
        <time>2022-07-12T16:50:01Z</time>
      </trkpt>
      <trkpt lat="44.23731" lon="2.58208">
        <ele>703.34</ele>
        <time>2022-07-12T16:50:38Z</time>
      </trkpt>
      <trkpt lat="44.23736" lon="2.58235">
        <ele>705.26</ele>
        <time>2022-07-12T16:50:50Z</time>
      </trkpt>
      <trkpt lat="44.2374" lon="2.58254">
        <ele>706.71</ele>
        <time>2022-07-12T16:51:00Z</time>
      </trkpt>
      <trkpt lat="44.23745" lon="2.58272">
        <ele>705.26</ele>
        <time>2022-07-12T16:51:10Z</time>
      </trkpt>
      <trkpt lat="44.23757" lon="2.58299">
        <ele>706.23</ele>
        <time>2022-07-12T16:51:23Z</time>
      </trkpt>
      <trkpt lat="44.23774" lon="2.58335">
        <ele>703.82</ele>
        <time>2022-07-12T16:51:44Z</time>
      </trkpt>
      <trkpt lat="44.2378" lon="2.58348">
        <ele>698.05</ele>
        <time>2022-07-12T16:51:52Z</time>
      </trkpt>
      <trkpt lat="44.23787" lon="2.5836">
        <ele>693.73</ele>
        <time>2022-07-12T16:51:59Z</time>
      </trkpt>
      <trkpt lat="44.23793" lon="2.58376">
        <ele>692.29</ele>
        <time>2022-07-12T16:52:05Z</time>
      </trkpt>
      <trkpt lat="44.23796" lon="2.58394">
        <ele>697.09</ele>
        <time>2022-07-12T16:52:11Z</time>
      </trkpt>
      <trkpt lat="44.23798" lon="2.58412">
        <ele>700.46</ele>
        <time>2022-07-12T16:52:19Z</time>
      </trkpt>
      <trkpt lat="44.23799" lon="2.58431">
        <ele>700.46</ele>
        <time>2022-07-12T16:52:30Z</time>
      </trkpt>
      <trkpt lat="44.23801" lon="2.58451">
        <ele>711.51</ele>
        <time>2022-07-12T16:52:37Z</time>
      </trkpt>
      <trkpt lat="44.23803" lon="2.58467">
        <ele>714.88</ele>
        <time>2022-07-12T16:52:42Z</time>
      </trkpt>
      <trkpt lat="44.23805" lon="2.58481">
        <ele>715.36</ele>
        <time>2022-07-12T16:52:50Z</time>
      </trkpt>
      <trkpt lat="44.23808" lon="2.58497">
        <ele>717.76</ele>
        <time>2022-07-12T16:52:58Z</time>
      </trkpt>
      <trkpt lat="44.23811" lon="2.58513">
        <ele>723.05</ele>
        <time>2022-07-12T16:53:07Z</time>
      </trkpt>
      <trkpt lat="44.23814" lon="2.58531">
        <ele>724.49</ele>
        <time>2022-07-12T16:53:15Z</time>
      </trkpt>
      <trkpt lat="44.23815" lon="2.58546">
        <ele>724.01</ele>
        <time>2022-07-12T16:53:23Z</time>
      </trkpt>
      <trkpt lat="44.23817" lon="2.58563">
        <ele>724.97</ele>
        <time>2022-07-12T16:53:31Z</time>
      </trkpt>
      <trkpt lat="44.2382" lon="2.58577">
        <ele>725.93</ele>
        <time>2022-07-12T16:53:39Z</time>
      </trkpt>
      <trkpt lat="44.23823" lon="2.58591">
        <ele>724.97</ele>
        <time>2022-07-12T16:53:47Z</time>
      </trkpt>
      <trkpt lat="44.23829" lon="2.58606">
        <ele>726.41</ele>
        <time>2022-07-12T16:53:55Z</time>
      </trkpt>
      <trkpt lat="44.23834" lon="2.58619">
        <ele>727.37</ele>
        <time>2022-07-12T16:54:03Z</time>
      </trkpt>
      <trkpt lat="44.23836" lon="2.58635">
        <ele>728.34</ele>
        <time>2022-07-12T16:54:11Z</time>
      </trkpt>
      <trkpt lat="44.23838" lon="2.5865">
        <ele>730.74</ele>
        <time>2022-07-12T16:54:19Z</time>
      </trkpt>
      <trkpt lat="44.23839" lon="2.58671">
        <ele>731.22</ele>
        <time>2022-07-12T16:54:30Z</time>
      </trkpt>
      <trkpt lat="44.23841" lon="2.5869">
        <ele>729.78</ele>
        <time>2022-07-12T16:54:37Z</time>
      </trkpt>
      <trkpt lat="44.23843" lon="2.58706">
        <ele>727.86</ele>
        <time>2022-07-12T16:54:45Z</time>
      </trkpt>
      <trkpt lat="44.23843" lon="2.58721">
        <ele>727.37</ele>
        <time>2022-07-12T16:54:53Z</time>
      </trkpt>
      <trkpt lat="44.23843" lon="2.58741">
        <ele>729.78</ele>
        <time>2022-07-12T16:55:02Z</time>
      </trkpt>
      <trkpt lat="44.23848" lon="2.5877">
        <ele>726.89</ele>
        <time>2022-07-12T16:55:19Z</time>
      </trkpt>
      <trkpt lat="44.23851" lon="2.58801">
        <ele>724.49</ele>
        <time>2022-07-12T16:55:33Z</time>
      </trkpt>
      <trkpt lat="44.23862" lon="2.58834">
        <ele>730.26</ele>
        <time>2022-07-12T16:55:48Z</time>
      </trkpt>
      <trkpt lat="44.23877" lon="2.58887">
        <ele>734.58</ele>
        <time>2022-07-12T16:56:17Z</time>
      </trkpt>
      <trkpt lat="44.23898" lon="2.58927">
        <ele>727.37</ele>
        <time>2022-07-12T16:56:41Z</time>
      </trkpt>
      <trkpt lat="44.23904" lon="2.58946">
        <ele>729.3</ele>
        <time>2022-07-12T16:56:49Z</time>
      </trkpt>
      <trkpt lat="44.23906" lon="2.58962">
        <ele>725.93</ele>
        <time>2022-07-12T16:56:58Z</time>
      </trkpt>
      <trkpt lat="44.23897" lon="2.58977">
        <ele>726.89</ele>
        <time>2022-07-12T16:57:03Z</time>
      </trkpt>
      <trkpt lat="44.23888" lon="2.58987">
        <ele>725.93</ele>
        <time>2022-07-12T16:57:06Z</time>
      </trkpt>
      <trkpt lat="44.23881" lon="2.59002">
        <ele>724.01</ele>
        <time>2022-07-12T16:57:10Z</time>
      </trkpt>
      <trkpt lat="44.23881" lon="2.5902">
        <ele>720.65</ele>
        <time>2022-07-12T16:57:14Z</time>
      </trkpt>
      <trkpt lat="44.23879" lon="2.59035">
        <ele>721.61</ele>
        <time>2022-07-12T16:57:16Z</time>
      </trkpt>
      <trkpt lat="44.23878" lon="2.5905">
        <ele>721.61</ele>
        <time>2022-07-12T16:57:18Z</time>
      </trkpt>
      <trkpt lat="44.23877" lon="2.59065">
        <ele>721.61</ele>
        <time>2022-07-12T16:57:20Z</time>
      </trkpt>
      <trkpt lat="44.23877" lon="2.59079">
        <ele>722.09</ele>
        <time>2022-07-12T16:57:22Z</time>
      </trkpt>
      <trkpt lat="44.23876" lon="2.59094">
        <ele>722.57</ele>
        <time>2022-07-12T16:57:24Z</time>
      </trkpt>
      <trkpt lat="44.23873" lon="2.59113">
        <ele>723.53</ele>
        <time>2022-07-12T16:57:27Z</time>
      </trkpt>
      <trkpt lat="44.2387" lon="2.59133">
        <ele>724.49</ele>
        <time>2022-07-12T16:57:30Z</time>
      </trkpt>
      <trkpt lat="44.23865" lon="2.59146">
        <ele>724.49</ele>
        <time>2022-07-12T16:57:32Z</time>
      </trkpt>
      <trkpt lat="44.23861" lon="2.59159">
        <ele>724.97</ele>
        <time>2022-07-12T16:57:34Z</time>
      </trkpt>
      <trkpt lat="44.23856" lon="2.59174">
        <ele>724.97</ele>
        <time>2022-07-12T16:57:37Z</time>
      </trkpt>
      <trkpt lat="44.23853" lon="2.59189">
        <ele>724.97</ele>
        <time>2022-07-12T16:57:40Z</time>
      </trkpt>
      <trkpt lat="44.23851" lon="2.59209">
        <ele>725.45</ele>
        <time>2022-07-12T16:57:43Z</time>
      </trkpt>
      <trkpt lat="44.23849" lon="2.59224">
        <ele>725.93</ele>
        <time>2022-07-12T16:57:45Z</time>
      </trkpt>
      <trkpt lat="44.23848" lon="2.59239">
        <ele>726.41</ele>
        <time>2022-07-12T16:57:47Z</time>
      </trkpt>
      <trkpt lat="44.23846" lon="2.59259">
        <ele>726.89</ele>
        <time>2022-07-12T16:57:50Z</time>
      </trkpt>
      <trkpt lat="44.23845" lon="2.59273">
        <ele>727.37</ele>
        <time>2022-07-12T16:57:52Z</time>
      </trkpt>
      <trkpt lat="44.23844" lon="2.59287">
        <ele>728.34</ele>
        <time>2022-07-12T16:57:54Z</time>
      </trkpt>
      <trkpt lat="44.23839" lon="2.59311">
        <ele>731.22</ele>
        <time>2022-07-12T16:57:57Z</time>
      </trkpt>
      <trkpt lat="44.23836" lon="2.59328">
        <ele>733.62</ele>
        <time>2022-07-12T16:57:59Z</time>
      </trkpt>
      <trkpt lat="44.2383" lon="2.59349">
        <ele>736.51</ele>
        <time>2022-07-12T16:58:02Z</time>
      </trkpt>
      <trkpt lat="44.23825" lon="2.59368">
        <ele>738.91</ele>
        <time>2022-07-12T16:58:05Z</time>
      </trkpt>
      <trkpt lat="44.2382" lon="2.59389">
        <ele>742.28</ele>
        <time>2022-07-12T16:58:08Z</time>
      </trkpt>
      <trkpt lat="44.23816" lon="2.59411">
        <ele>745.64</ele>
        <time>2022-07-12T16:58:11Z</time>
      </trkpt>
      <trkpt lat="44.23815" lon="2.59426">
        <ele>747.56</ele>
        <time>2022-07-12T16:58:13Z</time>
      </trkpt>
      <trkpt lat="44.23814" lon="2.59442">
        <ele>749.49</ele>
        <time>2022-07-12T16:58:15Z</time>
      </trkpt>
      <trkpt lat="44.23814" lon="2.59459">
        <ele>751.41</ele>
        <time>2022-07-12T16:58:17Z</time>
      </trkpt>
      <trkpt lat="44.23814" lon="2.59474">
        <ele>752.85</ele>
        <time>2022-07-12T16:58:19Z</time>
      </trkpt>
      <trkpt lat="44.23815" lon="2.59488">
        <ele>754.29</ele>
        <time>2022-07-12T16:58:21Z</time>
      </trkpt>
      <trkpt lat="44.23815" lon="2.59501">
        <ele>755.73</ele>
        <time>2022-07-12T16:58:23Z</time>
      </trkpt>
      <trkpt lat="44.23816" lon="2.59515">
        <ele>757.18</ele>
        <time>2022-07-12T16:58:25Z</time>
      </trkpt>
      <trkpt lat="44.23817" lon="2.59528">
        <ele>758.62</ele>
        <time>2022-07-12T16:58:27Z</time>
      </trkpt>
      <trkpt lat="44.23819" lon="2.59545">
        <ele>760.54</ele>
        <time>2022-07-12T16:58:30Z</time>
      </trkpt>
      <trkpt lat="44.23821" lon="2.59561">
        <ele>762.46</ele>
        <time>2022-07-12T16:58:34Z</time>
      </trkpt>
      <trkpt lat="44.23826" lon="2.59578">
        <ele>772.08</ele>
        <time>2022-07-12T16:58:58Z</time>
      </trkpt>
      <trkpt lat="44.23825" lon="2.59594">
        <ele>773.04</ele>
        <time>2022-07-12T16:59:07Z</time>
      </trkpt>
      <trkpt lat="44.23827" lon="2.5961">
        <ele>773.04</ele>
        <time>2022-07-12T16:59:15Z</time>
      </trkpt>
      <trkpt lat="44.23826" lon="2.59625">
        <ele>774</ele>
        <time>2022-07-12T16:59:22Z</time>
      </trkpt>
      <trkpt lat="44.23824" lon="2.5964">
        <ele>774.96</ele>
        <time>2022-07-12T16:59:30Z</time>
      </trkpt>
      <trkpt lat="44.2382" lon="2.59654">
        <ele>775.44</ele>
        <time>2022-07-12T16:59:38Z</time>
      </trkpt>
      <trkpt lat="44.23813" lon="2.59666">
        <ele>775.92</ele>
        <time>2022-07-12T16:59:46Z</time>
      </trkpt>
      <trkpt lat="44.23809" lon="2.59679">
        <ele>775.44</ele>
        <time>2022-07-12T16:59:53Z</time>
      </trkpt>
      <trkpt lat="44.23807" lon="2.59694">
        <ele>774.48</ele>
        <time>2022-07-12T17:00:02Z</time>
      </trkpt>
      <trkpt lat="44.23805" lon="2.59708">
        <ele>773.52</ele>
        <time>2022-07-12T17:00:09Z</time>
      </trkpt>
      <trkpt lat="44.23801" lon="2.59723">
        <ele>772.08</ele>
        <time>2022-07-12T17:00:16Z</time>
      </trkpt>
      <trkpt lat="44.23796" lon="2.59737">
        <ele>771.11</ele>
        <time>2022-07-12T17:00:23Z</time>
      </trkpt>
      <trkpt lat="44.23792" lon="2.59752">
        <ele>771.11</ele>
        <time>2022-07-12T17:00:30Z</time>
      </trkpt>
      <trkpt lat="44.23792" lon="2.59769">
        <ele>772.56</ele>
        <time>2022-07-12T17:00:37Z</time>
      </trkpt>
      <trkpt lat="44.23791" lon="2.59784">
        <ele>773.52</ele>
        <time>2022-07-12T17:00:44Z</time>
      </trkpt>
      <trkpt lat="44.23787" lon="2.59798">
        <ele>773.52</ele>
        <time>2022-07-12T17:00:52Z</time>
      </trkpt>
      <trkpt lat="44.23785" lon="2.59814">
        <ele>774.48</ele>
        <time>2022-07-12T17:01:00Z</time>
      </trkpt>
      <trkpt lat="44.23783" lon="2.59829">
        <ele>774.96</ele>
        <time>2022-07-12T17:01:08Z</time>
      </trkpt>
      <trkpt lat="44.23781" lon="2.59844">
        <ele>775.44</ele>
        <time>2022-07-12T17:01:16Z</time>
      </trkpt>
      <trkpt lat="44.23781" lon="2.59861">
        <ele>776.88</ele>
        <time>2022-07-12T17:01:25Z</time>
      </trkpt>
      <trkpt lat="44.23779" lon="2.59879">
        <ele>776.4</ele>
        <time>2022-07-12T17:01:35Z</time>
      </trkpt>
      <trkpt lat="44.23779" lon="2.59895">
        <ele>775.44</ele>
        <time>2022-07-12T17:01:44Z</time>
      </trkpt>
    </trkseg>
  </trk>
</gpx>